sensor_id;sensor_type;location;lat;lon;timestamp;P1;durP1;ratioP1;P2;durP2;ratioP2
13026;SDS011;6580;42.680;23.324;2023-08-06T00:00:05;4.88;;;3.35;;
13026;SDS011;6580;42.680;23.324;2023-08-06T00:02:53;3.78;;;3.45;;
13026;SDS011;6580;42.680;23.324;2023-08-06T00:05:41;3.85;;;3.45;;
13026;SDS011;6580;42.680;23.324;2023-08-06T00:08:27;5.38;;;4.28;;
13026;SDS011;6580;42.680;23.324;2023-08-06T00:11:12;5.72;;;4.25;;
13026;SDS011;6580;42.680;23.324;2023-08-06T00:13:58;5.70;;;4.45;;
13026;SDS011;6580;42.680;23.324;2023-08-06T00:16:43;4.82;;;4.10;;
13026;SDS011;6580;42.680;23.324;2023-08-06T00:19:31;6.18;;;3.42;;
13026;SDS011;6580;42.680;23.324;2023-08-06T00:22:16;5.18;;;3.42;;
13026;SDS011;6580;42.680;23.324;2023-08-06T00:25:02;7.90;;;3.80;;
13026;SDS011;6580;42.680;23.324;2023-08-06T00:27:48;5.78;;;4.18;;
13026;SDS011;6580;42.680;23.324;2023-08-06T00:30:34;4.13;;;3.45;;
13026;SDS011;6580;42.680;23.324;2023-08-06T00:33:19;3.35;;;3.08;;
13026;SDS011;6580;42.680;23.324;2023-08-06T00:36:06;4.13;;;3.72;;
13026;SDS011;6580;42.680;23.324;2023-08-06T00:38:53;3.65;;;3.28;;
13026;SDS011;6580;42.680;23.324;2023-08-06T00:41:39;3.72;;;3.35;;
13026;SDS011;6580;42.680;23.324;2023-08-06T00:44:25;3.92;;;3.45;;
13026;SDS011;6580;42.680;23.324;2023-08-06T00:47:10;3.95;;;3.47;;
13026;SDS011;6580;42.680;23.324;2023-08-06T00:49:56;3.60;;;3.30;;
13026;SDS011;6580;42.680;23.324;2023-08-06T00:52:45;3.95;;;3.20;;
13026;SDS011;6580;42.680;23.324;2023-08-06T00:55:30;3.50;;;3.20;;
13026;SDS011;6580;42.680;23.324;2023-08-06T00:58:15;6.10;;;3.08;;
13026;SDS011;6580;42.680;23.324;2023-08-06T01:01:02;3.42;;;3.00;;
13026;SDS011;6580;42.680;23.324;2023-08-06T01:03:47;4.20;;;3.42;;
13026;SDS011;6580;42.680;23.324;2023-08-06T01:06:35;3.90;;;3.30;;
13026;SDS011;6580;42.680;23.324;2023-08-06T01:09:33;3.50;;;3.20;;
13026;SDS011;6580;42.680;23.324;2023-08-06T01:12:30;4.00;;;3.47;;
13026;SDS011;6580;42.680;23.324;2023-08-06T01:15:27;4.47;;;3.33;;
13026;SDS011;6580;42.680;23.324;2023-08-06T01:18:17;4.35;;;3.55;;
13026;SDS011;6580;42.680;23.324;2023-08-06T01:21:04;3.20;;;2.92;;
13026;SDS011;6580;42.680;23.324;2023-08-06T01:23:50;3.78;;;3.42;;
13026;SDS011;6580;42.680;23.324;2023-08-06T01:26:37;5.22;;;4.03;;
13026;SDS011;6580;42.680;23.324;2023-08-06T01:29:28;4.25;;;3.50;;
13026;SDS011;6580;42.680;23.324;2023-08-06T01:32:18;5.00;;;4.00;;
13026;SDS011;6580;42.680;23.324;2023-08-06T01:35:06;5.72;;;4.28;;
13026;SDS011;6580;42.680;23.324;2023-08-06T01:37:54;4.13;;;3.72;;
13026;SDS011;6580;42.680;23.324;2023-08-06T01:40:40;31.60;;;27.10;;
13026;SDS011;6580;42.680;23.324;2023-08-06T01:43:26;30.25;;;25.70;;
13026;SDS011;6580;42.680;23.324;2023-08-06T01:46:11;14.63;;;11.57;;
13026;SDS011;6580;42.680;23.324;2023-08-06T01:48:56;8.73;;;5.78;;
13026;SDS011;6580;42.680;23.324;2023-08-06T01:51:43;9.73;;;8.38;;
13026;SDS011;6580;42.680;23.324;2023-08-06T01:54:31;8.60;;;7.70;;
13026;SDS011;6580;42.680;23.324;2023-08-06T01:57:17;30.80;;;23.75;;
13026;SDS011;6580;42.680;23.324;2023-08-06T02:00:05;20.40;;;16.10;;
13026;SDS011;6580;42.680;23.324;2023-08-06T02:02:51;12.38;;;9.20;;
13026;SDS011;6580;42.680;23.324;2023-08-06T02:05:37;8.38;;;6.68;;
13026;SDS011;6580;42.680;23.324;2023-08-06T02:08:23;6.00;;;5.40;;
13026;SDS011;6580;42.680;23.324;2023-08-06T02:11:14;6.20;;;4.85;;
13026;SDS011;6580;42.680;23.324;2023-08-06T02:13:59;5.38;;;4.60;;
13026;SDS011;6580;42.680;23.324;2023-08-06T02:16:45;6.25;;;4.47;;
13026;SDS011;6580;42.680;23.324;2023-08-06T02:19:30;5.60;;;4.43;;
13026;SDS011;6580;42.680;23.324;2023-08-06T02:22:16;4.05;;;3.65;;
13026;SDS011;6580;42.680;23.324;2023-08-06T02:25:01;4.18;;;3.40;;
13026;SDS011;6580;42.680;23.324;2023-08-06T02:27:48;4.07;;;3.30;;
13026;SDS011;6580;42.680;23.324;2023-08-06T02:30:33;5.40;;;4.18;;
13026;SDS011;6580;42.680;23.324;2023-08-06T02:33:19;10.45;;;4.60;;
13026;SDS011;6580;42.680;23.324;2023-08-06T02:36:05;5.97;;;4.05;;
13026;SDS011;6580;42.680;23.324;2023-08-06T02:38:50;4.40;;;3.78;;
13026;SDS011;6580;42.680;23.324;2023-08-06T02:41:53;5.75;;;3.90;;
13026;SDS011;6580;42.680;23.324;2023-08-06T02:44:40;4.50;;;4.10;;
13026;SDS011;6580;42.680;23.324;2023-08-06T02:47:25;3.80;;;3.50;;
13026;SDS011;6580;42.680;23.324;2023-08-06T02:50:11;4.43;;;3.97;;
13026;SDS011;6580;42.680;23.324;2023-08-06T02:52:56;4.47;;;4.07;;
13026;SDS011;6580;42.680;23.324;2023-08-06T02:55:44;4.70;;;4.13;;
13026;SDS011;6580;42.680;23.324;2023-08-06T02:58:31;4.35;;;3.95;;
13026;SDS011;6580;42.680;23.324;2023-08-06T03:01:18;3.95;;;3.42;;
13026;SDS011;6580;42.680;23.324;2023-08-06T03:04:04;3.95;;;3.58;;
13026;SDS011;6580;42.680;23.324;2023-08-06T03:06:51;5.07;;;3.70;;
13026;SDS011;6580;42.680;23.324;2023-08-06T03:09:36;3.50;;;3.20;;
13026;SDS011;6580;42.680;23.324;2023-08-06T03:12:22;4.80;;;3.95;;
13026;SDS011;6580;42.680;23.324;2023-08-06T03:15:08;5.63;;;3.92;;
13026;SDS011;6580;42.680;23.324;2023-08-06T03:17:56;5.35;;;4.32;;
13026;SDS011;6580;42.680;23.324;2023-08-06T03:20:43;5.43;;;4.45;;
13026;SDS011;6580;42.680;23.324;2023-08-06T03:23:30;5.88;;;4.85;;
13026;SDS011;6580;42.680;23.324;2023-08-06T03:26:16;4.55;;;3.95;;
13026;SDS011;6580;42.680;23.324;2023-08-06T03:29:02;4.57;;;3.97;;
13026;SDS011;6580;42.680;23.324;2023-08-06T03:31:47;4.43;;;3.83;;
13026;SDS011;6580;42.680;23.324;2023-08-06T03:34:34;4.80;;;3.50;;
13026;SDS011;6580;42.680;23.324;2023-08-06T03:37:20;4.15;;;3.75;;
13026;SDS011;6580;42.680;23.324;2023-08-06T03:40:05;4.57;;;4.00;;
13026;SDS011;6580;42.680;23.324;2023-08-06T03:42:52;4.43;;;3.47;;
13026;SDS011;6580;42.680;23.324;2023-08-06T03:45:37;3.72;;;3.42;;
13026;SDS011;6580;42.680;23.324;2023-08-06T03:48:23;4.70;;;4.30;;
13026;SDS011;6580;42.680;23.324;2023-08-06T03:51:10;5.15;;;3.55;;
13026;SDS011;6580;42.680;23.324;2023-08-06T03:53:55;5.47;;;3.95;;
13026;SDS011;6580;42.680;23.324;2023-08-06T03:56:43;5.00;;;3.88;;
13026;SDS011;6580;42.680;23.324;2023-08-06T03:59:30;4.50;;;3.83;;
13026;SDS011;6580;42.680;23.324;2023-08-06T04:02:15;4.00;;;3.65;;
13026;SDS011;6580;42.680;23.324;2023-08-06T04:05:01;4.40;;;3.72;;
13026;SDS011;6580;42.680;23.324;2023-08-06T04:07:47;3.95;;;3.60;;
13026;SDS011;6580;42.680;23.324;2023-08-06T04:10:33;4.85;;;3.50;;
13026;SDS011;6580;42.680;23.324;2023-08-06T04:13:18;4.28;;;3.70;;
13026;SDS011;6580;42.680;23.324;2023-08-06T04:16:04;3.78;;;3.38;;
13026;SDS011;6580;42.680;23.324;2023-08-06T04:18:51;3.55;;;3.33;;
13026;SDS011;6580;42.680;23.324;2023-08-06T04:21:39;3.33;;;3.03;;
13026;SDS011;6580;42.680;23.324;2023-08-06T04:24:26;2.75;;;2.55;;
13026;SDS011;6580;42.680;23.324;2023-08-06T04:27:13;3.92;;;3.55;;
13026;SDS011;6580;42.680;23.324;2023-08-06T04:29:59;3.60;;;3.03;;
13026;SDS011;6580;42.680;23.324;2023-08-06T04:32:45;3.42;;;3.13;;
13026;SDS011;6580;42.680;23.324;2023-08-06T04:35:31;3.55;;;3.25;;
13026;SDS011;6580;42.680;23.324;2023-08-06T04:38:16;5.03;;;3.28;;
13026;SDS011;6580;42.680;23.324;2023-08-06T04:41:04;4.07;;;3.67;;
13026;SDS011;6580;42.680;23.324;2023-08-06T04:43:51;4.45;;;3.78;;
13026;SDS011;6580;42.680;23.324;2023-08-06T04:46:38;3.85;;;3.42;;
13026;SDS011;6580;42.680;23.324;2023-08-06T04:49:26;4.43;;;4.03;;
13026;SDS011;6580;42.680;23.324;2023-08-06T04:52:11;3.80;;;3.50;;
13026;SDS011;6580;42.680;23.324;2023-08-06T04:54:57;4.15;;;3.75;;
13026;SDS011;6580;42.680;23.324;2023-08-06T04:57:44;4.60;;;4.07;;
13026;SDS011;6580;42.680;23.324;2023-08-06T05:00:29;5.82;;;5.00;;
13026;SDS011;6580;42.680;23.324;2023-08-06T05:03:16;5.10;;;4.53;;
13026;SDS011;6580;42.680;23.324;2023-08-06T05:06:01;5.30;;;4.47;;
13026;SDS011;6580;42.680;23.324;2023-08-06T05:08:47;5.13;;;4.65;;
13026;SDS011;6580;42.680;23.324;2023-08-06T05:11:32;5.13;;;4.03;;
13026;SDS011;6580;42.680;23.324;2023-08-06T05:14:19;4.45;;;4.05;;
13026;SDS011;6580;42.680;23.324;2023-08-06T05:17:04;3.88;;;3.42;;
13026;SDS011;6580;42.680;23.324;2023-08-06T05:19:50;4.00;;;3.60;;
13026;SDS011;6580;42.680;23.324;2023-08-06T05:22:36;3.85;;;3.55;;
13026;SDS011;6580;42.680;23.324;2023-08-06T05:25:22;4.05;;;3.60;;
13026;SDS011;6580;42.680;23.324;2023-08-06T05:28:08;4.70;;;4.22;;
13026;SDS011;6580;42.680;23.324;2023-08-06T05:30:55;4.95;;;4.40;;
13026;SDS011;6580;42.680;23.324;2023-08-06T05:33:41;5.78;;;5.18;;
13026;SDS011;6580;42.680;23.324;2023-08-06T05:36:27;6.53;;;5.28;;
13026;SDS011;6580;42.680;23.324;2023-08-06T05:39:15;6.53;;;5.15;;
13026;SDS011;6580;42.680;23.324;2023-08-06T05:42:01;9.40;;;6.32;;
13026;SDS011;6580;42.680;23.324;2023-08-06T05:44:50;7.88;;;6.85;;
13026;SDS011;6580;42.680;23.324;2023-08-06T05:47:41;9.20;;;6.85;;
13026;SDS011;6580;42.680;23.324;2023-08-06T05:50:27;7.70;;;6.28;;
13026;SDS011;6580;42.680;23.324;2023-08-06T05:53:13;6.32;;;5.72;;
13026;SDS011;6580;42.680;23.324;2023-08-06T05:55:58;4.05;;;3.72;;
13026;SDS011;6580;42.680;23.324;2023-08-06T05:58:44;4.32;;;3.55;;
13026;SDS011;6580;42.680;23.324;2023-08-06T06:01:31;3.67;;;3.03;;
13026;SDS011;6580;42.680;23.324;2023-08-06T06:04:18;2.70;;;2.50;;
13026;SDS011;6580;42.680;23.324;2023-08-06T06:07:04;2.63;;;2.42;;
13026;SDS011;6580;42.680;23.324;2023-08-06T06:09:49;3.42;;;2.70;;
13026;SDS011;6580;42.680;23.324;2023-08-06T06:12:35;2.50;;;2.30;;
13026;SDS011;6580;42.680;23.324;2023-08-06T06:15:23;3.70;;;2.47;;
13026;SDS011;6580;42.680;23.324;2023-08-06T06:18:09;3.25;;;2.50;;
13026;SDS011;6580;42.680;23.324;2023-08-06T06:20:56;2.97;;;2.67;;
13026;SDS011;6580;42.680;23.324;2023-08-06T06:23:41;2.90;;;2.65;;
13026;SDS011;6580;42.680;23.324;2023-08-06T06:26:28;2.53;;;2.33;;
13026;SDS011;6580;42.680;23.324;2023-08-06T06:29:16;2.70;;;2.03;;
13026;SDS011;6580;42.680;23.324;2023-08-06T06:32:02;2.67;;;2.38;;
13026;SDS011;6580;42.680;23.324;2023-08-06T06:34:48;2.28;;;1.92;;
13026;SDS011;6580;42.680;23.324;2023-08-06T06:37:37;3.80;;;2.15;;
13026;SDS011;6580;42.680;23.324;2023-08-06T06:40:23;2.50;;;2.03;;
13026;SDS011;6580;42.680;23.324;2023-08-06T06:43:09;2.53;;;2.33;;
13026;SDS011;6580;42.680;23.324;2023-08-06T06:45:55;2.15;;;2.03;;
13026;SDS011;6580;42.680;23.324;2023-08-06T06:48:43;2.05;;;1.85;;
13026;SDS011;6580;42.680;23.324;2023-08-06T06:51:28;2.17;;;2.05;;
13026;SDS011;6580;42.680;23.324;2023-08-06T06:54:16;3.28;;;2.40;;
13026;SDS011;6580;42.680;23.324;2023-08-06T06:57:02;2.65;;;2.45;;
13026;SDS011;6580;42.680;23.324;2023-08-06T06:59:48;2.95;;;2.20;;
13026;SDS011;6580;42.680;23.324;2023-08-06T07:02:34;2.55;;;2.38;;
13026;SDS011;6580;42.680;23.324;2023-08-06T07:05:19;3.10;;;2.88;;
13026;SDS011;6580;42.680;23.324;2023-08-06T07:08:05;3.22;;;2.63;;
13026;SDS011;6580;42.680;23.324;2023-08-06T07:10:58;3.72;;;2.78;;
13026;SDS011;6580;42.680;23.324;2023-08-06T07:13:46;2.17;;;2.08;;
13026;SDS011;6580;42.680;23.324;2023-08-06T07:16:31;2.80;;;2.60;;
13026;SDS011;6580;42.680;23.324;2023-08-06T07:19:18;2.83;;;2.40;;
13026;SDS011;6580;42.680;23.324;2023-08-06T07:22:04;2.63;;;2.40;;
13026;SDS011;6580;42.680;23.324;2023-08-06T07:24:51;2.90;;;2.70;;
13026;SDS011;6580;42.680;23.324;2023-08-06T07:27:38;2.80;;;2.60;;
13026;SDS011;6580;42.680;23.324;2023-08-06T07:30:23;2.97;;;2.63;;
13026;SDS011;6580;42.680;23.324;2023-08-06T07:33:09;3.10;;;2.90;;
13026;SDS011;6580;42.680;23.324;2023-08-06T07:35:55;2.80;;;2.60;;
13026;SDS011;6580;42.680;23.324;2023-08-06T07:38:41;2.95;;;2.60;;
13026;SDS011;6580;42.680;23.324;2023-08-06T07:41:26;2.58;;;2.28;;
13026;SDS011;6580;42.680;23.324;2023-08-06T07:44:14;2.65;;;2.47;;
13026;SDS011;6580;42.680;23.324;2023-08-06T07:46:59;2.80;;;2.60;;
13026;SDS011;6580;42.680;23.324;2023-08-06T07:49:45;3.40;;;2.50;;
13026;SDS011;6580;42.680;23.324;2023-08-06T07:52:30;2.70;;;2.50;;
13026;SDS011;6580;42.680;23.324;2023-08-06T07:55:16;2.90;;;2.70;;
13026;SDS011;6580;42.680;23.324;2023-08-06T07:58:01;2.47;;;2.38;;
13026;SDS011;6580;42.680;23.324;2023-08-06T08:00:49;3.78;;;2.67;;
13026;SDS011;6580;42.680;23.324;2023-08-06T08:03:34;3.25;;;2.55;;
13026;SDS011;6580;42.680;23.324;2023-08-06T08:06:20;3.40;;;3.10;;
13026;SDS011;6580;42.680;23.324;2023-08-06T08:09:05;3.10;;;2.83;;
13026;SDS011;6580;42.680;23.324;2023-08-06T08:11:51;4.30;;;3.08;;
13026;SDS011;6580;42.680;23.324;2023-08-06T08:14:36;2.70;;;2.50;;
13026;SDS011;6580;42.680;23.324;2023-08-06T08:17:24;3.25;;;3.05;;
13026;SDS011;6580;42.680;23.324;2023-08-06T08:20:10;2.72;;;2.53;;
13026;SDS011;6580;42.680;23.324;2023-08-06T08:22:56;3.08;;;2.58;;
13026;SDS011;6580;42.680;23.324;2023-08-06T08:25:42;2.40;;;2.30;;
13026;SDS011;6580;42.680;23.324;2023-08-06T08:28:28;4.75;;;2.45;;
13026;SDS011;6580;42.680;23.324;2023-08-06T08:31:13;3.30;;;2.90;;
13026;SDS011;6580;42.680;23.324;2023-08-06T08:34:02;3.08;;;2.83;;
13026;SDS011;6580;42.680;23.324;2023-08-06T08:36:48;3.08;;;2.78;;
13026;SDS011;6580;42.680;23.324;2023-08-06T08:39:34;3.15;;;2.95;;
13026;SDS011;6580;42.680;23.324;2023-08-06T08:42:20;3.40;;;3.10;;
13026;SDS011;6580;42.680;23.324;2023-08-06T08:45:06;2.60;;;2.40;;
13026;SDS011;6580;42.680;23.324;2023-08-06T08:47:57;3.03;;;2.70;;
13026;SDS011;6580;42.680;23.324;2023-08-06T08:50:45;2.58;;;2.47;;
13026;SDS011;6580;42.680;23.324;2023-08-06T08:53:33;2.53;;;2.33;;
13026;SDS011;6580;42.680;23.324;2023-08-06T08:56:21;2.88;;;2.67;;
13026;SDS011;6580;42.680;23.324;2023-08-06T08:59:09;2.90;;;2.70;;
13026;SDS011;6580;42.680;23.324;2023-08-06T09:01:55;3.35;;;3.08;;
13026;SDS011;6580;42.680;23.324;2023-08-06T09:04:41;3.00;;;2.80;;
13026;SDS011;6580;42.680;23.324;2023-08-06T09:07:31;3.80;;;3.50;;
13026;SDS011;6580;42.680;23.324;2023-08-06T09:10:20;3.53;;;2.90;;
13026;SDS011;6580;42.680;23.324;2023-08-06T09:13:08;3.47;;;3.17;;
13026;SDS011;6580;42.680;23.324;2023-08-06T09:15:55;4.68;;;3.15;;
13026;SDS011;6580;42.680;23.324;2023-08-06T09:18:41;3.17;;;2.97;;
13026;SDS011;6580;42.680;23.324;2023-08-06T09:24:34;3.40;;;3.08;;
13026;SDS011;6580;42.680;23.324;2023-08-06T09:27:23;3.10;;;2.90;;
13026;SDS011;6580;42.680;23.324;2023-08-06T09:30:09;3.97;;;3.63;;
13026;SDS011;6580;42.680;23.324;2023-08-06T09:32:55;4.03;;;2.90;;
13026;SDS011;6580;42.680;23.324;2023-08-06T09:35:40;5.07;;;3.05;;
13026;SDS011;6580;42.680;23.324;2023-08-06T09:38:26;3.17;;;2.88;;
13026;SDS011;6580;42.680;23.324;2023-08-06T09:41:28;2.50;;;2.40;;
13026;SDS011;6580;42.680;23.324;2023-08-06T09:44:17;2.90;;;2.60;;
13026;SDS011;6580;42.680;23.324;2023-08-06T09:47:03;4.15;;;2.58;;
13026;SDS011;6580;42.680;23.324;2023-08-06T09:49:49;2.25;;;2.05;;
13026;SDS011;6580;42.680;23.324;2023-08-06T09:52:37;2.83;;;2.20;;
13026;SDS011;6580;42.680;23.324;2023-08-06T09:55:23;2.30;;;2.15;;
13026;SDS011;6580;42.680;23.324;2023-08-06T09:58:11;2.25;;;2.03;;
13026;SDS011;6580;42.680;23.324;2023-08-06T10:00:58;2.40;;;2.20;;
13026;SDS011;6580;42.680;23.324;2023-08-06T10:03:44;2.05;;;1.95;;
13026;SDS011;6580;42.680;23.324;2023-08-06T10:06:34;2.20;;;2.10;;
13026;SDS011;6580;42.680;23.324;2023-08-06T10:09:20;2.97;;;2.05;;
13026;SDS011;6580;42.680;23.324;2023-08-06T10:12:06;2.38;;;2.17;;
13026;SDS011;6580;42.680;23.324;2023-08-06T10:14:53;2.30;;;2.13;;
13026;SDS011;6580;42.680;23.324;2023-08-06T10:17:40;2.50;;;2.30;;
13026;SDS011;6580;42.680;23.324;2023-08-06T10:20:32;1.98;;;1.88;;
13026;SDS011;6580;42.680;23.324;2023-08-06T10:23:18;3.53;;;2.65;;
13026;SDS011;6580;42.680;23.324;2023-08-06T10:26:05;2.45;;;2.30;;
13026;SDS011;6580;42.680;23.324;2023-08-06T10:28:50;2.78;;;2.40;;
13026;SDS011;6580;42.680;23.324;2023-08-06T10:31:58;2.75;;;2.55;;
13026;SDS011;6580;42.680;23.324;2023-08-06T10:34:57;4.05;;;3.65;;
13026;SDS011;6580;42.680;23.324;2023-08-06T10:37:44;3.22;;;3.03;;
13026;SDS011;6580;42.680;23.324;2023-08-06T10:40:32;3.78;;;3.40;;
13026;SDS011;6580;42.680;23.324;2023-08-06T10:43:24;4.50;;;3.45;;
13026;SDS011;6580;42.680;23.324;2023-08-06T10:46:11;5.07;;;3.28;;
13026;SDS011;6580;42.680;23.324;2023-08-06T10:49:07;3.85;;;3.47;;
13026;SDS011;6580;42.680;23.324;2023-08-06T10:51:53;3.63;;;3.30;;
13026;SDS011;6580;42.680;23.324;2023-08-06T10:54:39;3.28;;;2.63;;
13026;SDS011;6580;42.680;23.324;2023-08-06T10:57:24;3.35;;;3.05;;
13026;SDS011;6580;42.680;23.324;2023-08-06T11:00:13;2.83;;;2.60;;
13026;SDS011;6580;42.680;23.324;2023-08-06T11:02:59;3.08;;;2.85;;
13026;SDS011;6580;42.680;23.324;2023-08-06T11:05:49;3.20;;;2.92;;
13026;SDS011;6580;42.680;23.324;2023-08-06T11:08:40;2.90;;;2.70;;
13026;SDS011;6580;42.680;23.324;2023-08-06T11:11:34;3.97;;;3.67;;
13026;SDS011;6580;42.680;23.324;2023-08-06T11:14:22;3.30;;;3.00;;
13026;SDS011;6580;42.680;23.324;2023-08-06T11:17:07;4.63;;;4.20;;
13026;SDS011;6580;42.680;23.324;2023-08-06T11:19:53;6.18;;;5.03;;
13026;SDS011;6580;42.680;23.324;2023-08-06T11:22:43;4.90;;;4.43;;
13026;SDS011;6580;42.680;23.324;2023-08-06T11:25:30;3.90;;;3.53;;
13026;SDS011;6580;42.680;23.324;2023-08-06T11:28:16;4.00;;;3.70;;
13026;SDS011;6580;42.680;23.324;2023-08-06T11:31:05;3.60;;;3.30;;
13026;SDS011;6580;42.680;23.324;2023-08-06T11:33:51;3.85;;;3.50;;
13026;SDS011;6580;42.680;23.324;2023-08-06T11:36:39;3.22;;;2.92;;
13026;SDS011;6580;42.680;23.324;2023-08-06T11:39:29;3.92;;;3.47;;
13026;SDS011;6580;42.680;23.324;2023-08-06T11:42:15;4.43;;;4.03;;
13026;SDS011;6580;42.680;23.324;2023-08-06T11:45:05;4.68;;;3.78;;
13026;SDS011;6580;42.680;23.324;2023-08-06T11:47:53;3.83;;;3.53;;
13026;SDS011;6580;42.680;23.324;2023-08-06T11:50:42;3.60;;;3.33;;
13026;SDS011;6580;42.680;23.324;2023-08-06T11:53:29;3.85;;;3.50;;
13026;SDS011;6580;42.680;23.324;2023-08-06T11:56:16;3.47;;;3.00;;
13026;SDS011;6580;42.680;23.324;2023-08-06T11:59:04;3.75;;;3.45;;
13026;SDS011;6580;42.680;23.324;2023-08-06T12:01:50;3.83;;;3.50;;
13026;SDS011;6580;42.680;23.324;2023-08-06T12:07:56;3.78;;;3.47;;
13026;SDS011;6580;42.680;23.324;2023-08-06T12:10:43;4.72;;;4.32;;
13026;SDS011;6580;42.680;23.324;2023-08-06T12:13:32;3.78;;;3.47;;
13026;SDS011;6580;42.680;23.324;2023-08-06T12:16:17;3.50;;;3.20;;
13026;SDS011;6580;42.680;23.324;2023-08-06T12:19:04;4.10;;;3.80;;
13026;SDS011;6580;42.680;23.324;2023-08-06T12:21:50;4.40;;;4.00;;
13026;SDS011;6580;42.680;23.324;2023-08-06T12:24:36;3.90;;;3.60;;
13026;SDS011;6580;42.680;23.324;2023-08-06T12:27:21;3.90;;;3.60;;
13026;SDS011;6580;42.680;23.324;2023-08-06T12:30:09;4.35;;;3.97;;
13026;SDS011;6580;42.680;23.324;2023-08-06T12:33:13;4.20;;;3.90;;
13026;SDS011;6580;42.680;23.324;2023-08-06T12:35:59;4.97;;;4.50;;
13026;SDS011;6580;42.680;23.324;2023-08-06T12:38:46;4.20;;;3.90;;
13026;SDS011;6580;42.680;23.324;2023-08-06T12:41:34;4.38;;;3.97;;
13026;SDS011;6580;42.680;23.324;2023-08-06T12:44:22;4.28;;;3.97;;
13026;SDS011;6580;42.680;23.324;2023-08-06T12:47:10;4.57;;;4.18;;
13026;SDS011;6580;42.680;23.324;2023-08-06T12:49:58;4.40;;;4.05;;
13026;SDS011;6580;42.680;23.324;2023-08-06T12:52:44;4.20;;;3.85;;
13026;SDS011;6580;42.680;23.324;2023-08-06T12:55:30;4.32;;;4.03;;
13026;SDS011;6580;42.680;23.324;2023-08-06T12:58:15;6.05;;;5.05;;
13026;SDS011;6580;42.680;23.324;2023-08-06T13:01:03;4.75;;;4.35;;
13026;SDS011;6580;42.680;23.324;2023-08-06T13:03:50;5.00;;;4.55;;
13026;SDS011;6580;42.680;23.324;2023-08-06T13:06:36;5.80;;;5.20;;
13026;SDS011;6580;42.680;23.324;2023-08-06T13:09:24;4.45;;;4.05;;
13026;SDS011;6580;42.680;23.324;2023-08-06T13:12:09;5.53;;;5.00;;
13026;SDS011;6580;42.680;23.324;2023-08-06T13:14:56;5.20;;;4.75;;
13026;SDS011;6580;42.680;23.324;2023-08-06T13:17:42;4.57;;;4.20;;
13026;SDS011;6580;42.680;23.324;2023-08-06T13:20:31;5.28;;;4.88;;
13026;SDS011;6580;42.680;23.324;2023-08-06T13:23:17;6.40;;;4.78;;
13026;SDS011;6580;42.680;23.324;2023-08-06T13:26:04;5.40;;;5.00;;
13026;SDS011;6580;42.680;23.324;2023-08-06T13:29:03;5.18;;;4.50;;
13026;SDS011;6580;42.680;23.324;2023-08-06T13:31:51;4.07;;;3.78;;
13026;SDS011;6580;42.680;23.324;2023-08-06T13:34:37;4.50;;;4.20;;
13026;SDS011;6580;42.680;23.324;2023-08-06T13:37:23;4.10;;;3.80;;
13026;SDS011;6580;42.680;23.324;2023-08-06T13:40:09;4.30;;;4.00;;
13026;SDS011;6580;42.680;23.324;2023-08-06T13:42:57;4.82;;;4.43;;
13026;SDS011;6580;42.680;23.324;2023-08-06T13:45:42;5.80;;;5.18;;
13026;SDS011;6580;42.680;23.324;2023-08-06T13:48:28;4.60;;;4.20;;
13026;SDS011;6580;42.680;23.324;2023-08-06T13:51:16;4.13;;;3.72;;
13026;SDS011;6580;42.680;23.324;2023-08-06T13:54:03;4.03;;;3.53;;
13026;SDS011;6580;42.680;23.324;2023-08-06T13:56:49;5.78;;;5.28;;
13026;SDS011;6580;42.680;23.324;2023-08-06T13:59:35;5.05;;;4.50;;
13026;SDS011;6580;42.680;23.324;2023-08-06T14:02:20;4.25;;;3.85;;
13026;SDS011;6580;42.680;23.324;2023-08-06T14:05:06;4.65;;;3.88;;
13026;SDS011;6580;42.680;23.324;2023-08-06T14:07:52;4.13;;;3.83;;
13026;SDS011;6580;42.680;23.324;2023-08-06T14:10:39;5.30;;;4.90;;
13026;SDS011;6580;42.680;23.324;2023-08-06T14:13:25;4.38;;;4.07;;
13026;SDS011;6580;42.680;23.324;2023-08-06T14:16:10;4.05;;;3.75;;
13026;SDS011;6580;42.680;23.324;2023-08-06T14:18:58;4.55;;;3.90;;
13026;SDS011;6580;42.680;23.324;2023-08-06T14:21:43;4.65;;;4.25;;
13026;SDS011;6580;42.680;23.324;2023-08-06T14:24:29;5.65;;;4.30;;
13026;SDS011;6580;42.680;23.324;2023-08-06T14:27:17;3.85;;;3.55;;
13026;SDS011;6580;42.680;23.324;2023-08-06T14:30:03;3.88;;;3.58;;
13026;SDS011;6580;42.680;23.324;2023-08-06T14:32:50;4.32;;;4.03;;
13026;SDS011;6580;42.680;23.324;2023-08-06T14:35:35;4.50;;;4.10;;
13026;SDS011;6580;42.680;23.324;2023-08-06T14:38:21;4.43;;;3.78;;
13026;SDS011;6580;42.680;23.324;2023-08-06T14:41:07;4.40;;;4.00;;
13026;SDS011;6580;42.680;23.324;2023-08-06T14:43:57;3.88;;;3.58;;
13026;SDS011;6580;42.680;23.324;2023-08-06T14:46:43;4.10;;;3.80;;
13026;SDS011;6580;42.680;23.324;2023-08-06T14:49:29;3.72;;;3.40;;
13026;SDS011;6580;42.680;23.324;2023-08-06T14:52:15;3.90;;;3.60;;
13026;SDS011;6580;42.680;23.324;2023-08-06T14:55:00;3.67;;;3.38;;
13026;SDS011;6580;42.680;23.324;2023-08-06T14:57:47;4.55;;;4.15;;
13026;SDS011;6580;42.680;23.324;2023-08-06T15:00:34;4.50;;;4.00;;
13026;SDS011;6580;42.680;23.324;2023-08-06T15:03:19;4.38;;;3.97;;
13026;SDS011;6580;42.680;23.324;2023-08-06T15:06:08;4.10;;;3.70;;
13026;SDS011;6580;42.680;23.324;2023-08-06T15:08:54;3.92;;;3.58;;
13026;SDS011;6580;42.680;23.324;2023-08-06T15:11:41;5.28;;;3.33;;
13026;SDS011;6580;42.680;23.324;2023-08-06T15:14:28;4.07;;;3.70;;
13026;SDS011;6580;42.680;23.324;2023-08-06T15:17:15;5.00;;;4.50;;
13026;SDS011;6580;42.680;23.324;2023-08-06T15:20:01;4.63;;;3.65;;
13026;SDS011;6580;42.680;23.324;2023-08-06T15:22:48;5.70;;;4.65;;
13026;SDS011;6580;42.680;23.324;2023-08-06T15:25:35;5.03;;;4.57;;
13026;SDS011;6580;42.680;23.324;2023-08-06T15:28:21;4.82;;;4.40;;
13026;SDS011;6580;42.680;23.324;2023-08-06T15:31:07;4.18;;;3.78;;
13026;SDS011;6580;42.680;23.324;2023-08-06T15:33:54;4.68;;;4.28;;
13026;SDS011;6580;42.680;23.324;2023-08-06T15:36:39;4.07;;;3.70;;
13026;SDS011;6580;42.680;23.324;2023-08-06T15:39:25;3.88;;;3.58;;
13026;SDS011;6580;42.680;23.324;2023-08-06T15:42:10;6.38;;;5.30;;
13026;SDS011;6580;42.680;23.324;2023-08-06T15:44:56;3.80;;;3.45;;
13026;SDS011;6580;42.680;23.324;2023-08-06T15:47:42;4.65;;;4.22;;
13026;SDS011;6580;42.680;23.324;2023-08-06T15:50:30;4.80;;;4.38;;
13026;SDS011;6580;42.680;23.324;2023-08-06T15:53:15;4.43;;;3.95;;
13026;SDS011;6580;42.680;23.324;2023-08-06T15:56:01;3.78;;;3.42;;
13026;SDS011;6580;42.680;23.324;2023-08-06T15:58:49;3.30;;;3.10;;
13026;SDS011;6580;42.680;23.324;2023-08-06T16:01:34;3.10;;;2.80;;
13026;SDS011;6580;42.680;23.324;2023-08-06T16:04:22;4.07;;;3.30;;
13026;SDS011;6580;42.680;23.324;2023-08-06T16:07:09;3.90;;;3.60;;
13026;SDS011;6580;42.680;23.324;2023-08-06T16:09:56;5.40;;;3.53;;
13026;SDS011;6580;42.680;23.324;2023-08-06T16:12:42;3.40;;;3.20;;
13026;SDS011;6580;42.680;23.324;2023-08-06T16:15:27;3.78;;;3.47;;
13026;SDS011;6580;42.680;23.324;2023-08-06T16:18:14;3.88;;;3.40;;
13026;SDS011;6580;42.680;23.324;2023-08-06T16:20:59;3.97;;;3.40;;
13026;SDS011;6580;42.680;23.324;2023-08-06T16:23:47;3.38;;;3.08;;
13026;SDS011;6580;42.680;23.324;2023-08-06T16:26:33;4.28;;;3.67;;
13026;SDS011;6580;42.680;23.324;2023-08-06T16:29:20;4.22;;;3.65;;
13026;SDS011;6580;42.680;23.324;2023-08-06T16:32:06;3.83;;;3.53;;
13026;SDS011;6580;42.680;23.324;2023-08-06T16:34:51;5.13;;;4.10;;
13026;SDS011;6580;42.680;23.324;2023-08-06T16:37:37;3.65;;;3.38;;
13026;SDS011;6580;42.680;23.324;2023-08-06T16:40:32;3.97;;;3.40;;
13026;SDS011;6580;42.680;23.324;2023-08-06T16:43:17;6.65;;;5.95;;
13026;SDS011;6580;42.680;23.324;2023-08-06T16:46:03;9.68;;;8.57;;
13026;SDS011;6580;42.680;23.324;2023-08-06T16:48:48;2.92;;;2.72;;
13026;SDS011;6580;42.680;23.324;2023-08-06T16:51:33;3.85;;;3.17;;